Time;durP1;ratioP1;P1;durP2;ratioP2;P2;SDS_P1;SDS_P2;PMS_P1;PMS_P2;Temp;Humidity;BMP_temperature;BMP_pressure;BME280_temperature;BME280_humidity;BME280_pressure;Samples;Min_cycle;Max_cycle;Signal;HPM_P1;HPM_P2
2022/09/15 00:02:26;;;;;;;11.30;4.72;;;17.00;99.90;;;;;;5117461;28;20118;-73
2022/09/15 00:04:53;;;;;;;10.73;5.40;;;16.90;99.90;;;;;;5117953;28;20380;-73
2022/09/15 00:07:23;;;;;;;9.20;4.38;;;16.80;99.90;;;;;;5117111;28;20089;-73
2022/09/15 00:09:50;;;;;;;10.55;4.88;;;16.90;99.90;;;;;;5117703;28;20502;-75
2022/09/15 00:12:17;;;;;;;11.80;4.38;;;16.70;99.90;;;;;;5117005;28;20040;-75
2022/09/15 00:14:45;;;;;;;11.30;4.72;;;16.70;99.90;;;;;;5117192;28;20510;-75
2022/09/15 00:17:12;;;;;;;6.70;4.18;;;16.70;99.90;;;;;;5117335;28;20127;-75
2022/09/15 00:19:39;;;;;;;9.77;5.05;;;16.70;99.90;;;;;;5117556;28;20116;-74
2022/09/15 00:22:07;;;;;;;10.07;4.63;;;16.70;99.90;;;;;;5115572;28;20451;-74
2022/09/15 00:24:36;;;;;;;12.60;5.15;;;16.70;99.90;;;;;;5116787;28;20090;-73
2022/09/15 00:27:03;;;;;;;13.95;5.00;;;16.70;99.90;;;;;;5117417;28;20054;-73
2022/09/15 00:29:31;;;;;;;12.00;6.30;;;16.70;99.90;;;;;;5098733;28;20055;-74
2022/09/15 00:31:58;;;;;;;12.45;8.82;;;16.70;99.90;;;;;;5117207;28;20101;-74
2022/09/15 00:34:25;;;;;;;12.40;8.48;;;16.70;99.90;;;;;;5116087;28;20482;-73
2022/09/15 00:36:52;;;;;;;12.68;6.65;;;16.80;99.90;;;;;;5098809;28;20047;-74
2022/09/15 00:39:20;;;;;;;10.07;5.43;;;16.80;99.90;;;;;;5116802;28;20040;-74
2022/09/15 00:41:49;;;;;;;9.75;4.85;;;16.80;99.90;;;;;;5115109;28;20138;-75
2022/09/15 00:45:01;;;;;;;7.78;4.60;;;16.70;99.90;;;;;;5116090;28;20059;-75
2022/09/15 00:47:31;;;;;;;9.27;4.72;;;16.70;99.90;;;;;;5058697;28;20092;-73
2022/09/15 00:50:02;;;;;;;9.02;4.25;;;16.80;99.90;;;;;;5116954;28;20491;-75
2022/09/15 00:52:35;;;;;;;10.25;4.32;;;16.80;99.90;;;;;;5116353;28;20031;-76
2022/09/15 00:55:09;;;;;;;9.18;4.35;;;16.90;99.90;;;;;;5098435;28;20055;-75
2022/09/15 00:57:41;;;;;;;9.55;4.85;;;16.80;99.90;;;;;;5098530;28;20050;-75
2022/09/15 01:00:11;;;;;;;9.07;4.88;;;16.80;99.90;;;;;;5115652;28;20043;-75
2022/09/15 01:02:41;;;;;;;9.68;5.22;;;16.90;99.90;;;;;;5116527;28;20455;-75
2022/09/15 01:05:12;;;;;;;8.57;4.75;;;16.90;99.90;;;;;;5108464;28;20039;-75
2022/09/15 01:07:45;;;;;;;9.23;5.32;;;16.90;99.90;;;;;;5116502;28;20040;-75
2022/09/15 01:10:17;;;;;;;9.45;5.25;;;16.90;99.90;;;;;;5116238;28;20040;-75
2022/09/15 01:12:47;;;;;;;9.43;4.10;;;16.80;99.90;;;;;;5116013;28;20035;-76
2022/09/15 01:15:15;;;;;;;9.25;4.50;;;16.80;99.90;;;;;;5116191;28;20093;-75
2022/09/15 01:17:54;;;;;;;13.50;4.15;;;16.80;99.90;;;;;;5116076;28;20509;-75
2022/09/15 01:20:52;;;;;;;10.50;4.25;;;16.80;99.90;;;;;;5116335;28;20487;-75
2022/09/15 01:23:41;;;;;;;9.23;4.40;;;16.80;99.90;;;;;;5095336;28;20040;-74
2022/09/15 01:26:41;;;;;;;9.23;4.30;;;16.90;99.90;;;;;;5115246;28;20048;-75
2022/09/15 01:29:42;;;;;;;10.88;4.75;;;16.90;99.90;;;;;;5116402;28;20118;-74
2022/09/15 01:35:07;;;;;;;7.72;4.15;;;16.80;99.90;;;;;;5087410;28;20059;-74
2022/09/15 01:37:40;;;;;;;11.73;4.60;;;16.90;99.90;;;;;;5119529;28;20047;-74
2022/09/15 01:40:09;;;;;;;14.07;6.32;;;16.80;99.90;;;;;;5109389;28;20096;-75
2022/09/15 01:42:40;;;;;;;18.08;9.95;;;16.80;99.90;;;;;;5095209;28;20044;-75
2022/09/15 01:45:12;;;;;;;12.55;5.55;;;16.90;99.90;;;;;;5106562;28;20035;-75
2022/09/15 01:47:41;;;;;;;20.80;12.55;;;16.90;99.90;;;;;;5117282;28;20436;-74
2022/09/15 01:50:11;;;;;;;12.23;6.70;;;16.90;99.90;;;;;;5118532;28;20047;-74
2022/09/15 01:52:43;;;;;;;11.85;4.70;;;16.90;99.90;;;;;;5117448;28;20085;-74
2022/09/15 01:55:16;;;;;;;9.93;3.70;;;16.90;99.90;;;;;;5115794;28;20055;-74
2022/09/15 01:57:43;;;;;;;7.55;3.60;;;17.00;99.90;;;;;;5116101;28;20101;-74
2022/09/15 02:00:13;;;;;;;9.05;3.50;;;17.00;99.90;;;;;;5118203;28;20115;-74
2022/09/15 02:02:46;;;;;;;7.75;3.90;;;17.00;99.90;;;;;;5115362;28;20063;-74
2022/09/15 02:05:20;;;;;;;9.85;3.58;;;17.00;99.90;;;;;;5115398;28;20096;-73
2022/09/15 02:07:53;;;;;;;10.68;3.28;;;17.00;99.90;;;;;;5097079;28;20047;-73
2022/09/15 02:10:27;;;;;;;9.55;3.50;;;17.00;99.90;;;;;;5115596;28;20467;-73
2022/09/15 02:12:59;;;;;;;7.45;4.07;;;17.00;99.90;;;;;;5114926;28;20043;-73
2022/09/15 02:15:32;;;;;;;9.60;3.58;;;17.00;99.90;;;;;;5115191;28;20040;-73
2022/09/15 02:18:03;;;;;;;6.78;3.67;;;17.00;99.90;;;;;;5114314;28;20097;-73
2022/09/15 02:20:39;;;;;;;7.35;3.67;;;17.10;99.90;;;;;;5113809;28;20100;-74
2022/09/15 02:23:08;;;;;;;;;;;17.10;99.90;;;;;;5115118;28;20458;-73
2022/09/15 02:25:42;;;;;;;17.45;4.20;;;17.10;99.90;;;;;;5115065;28;19924;-74
2022/09/15 02:28:11;;;;;;;7.95;3.38;;;17.10;99.90;;;;;;5114550;28;20065;-75
2022/09/15 02:30:43;;;;;;;7.18;3.55;;;17.10;99.90;;;;;;5114964;28;20384;-75
2022/09/15 02:33:14;;;;;;;7.75;3.67;;;17.10;99.90;;;;;;5114480;28;20038;-75
2022/09/15 02:35:43;;;;;;;8.55;3.50;;;17.10;99.90;;;;;;5114997;28;20043;-75
2022/09/15 02:38:12;;;;;;;8.18;4.00;;;17.10;99.90;;;;;;5114664;28;20047;-75
2022/09/15 02:40:42;;;;;;;5.68;3.63;;;17.10;99.90;;;;;;5113557;28;20032;-75
2022/09/15 02:43:12;;;;;;;8.63;3.83;;;17.10;99.90;;;;;;5113937;28;20131;-75
2022/09/15 02:45:41;;;;;;;7.57;3.30;;;17.10;99.90;;;;;;5114476;28;20122;-75
2022/09/15 02:48:09;;;;;;;12.38;4.03;;;17.20;99.90;;;;;;5114533;28;20040;-75
2022/09/15 02:50:36;;;;;;;9.70;3.78;;;17.20;99.90;;;;;;5114821;28;20110;-75
2022/09/15 02:53:04;;;;;;;7.38;3.47;;;17.20;99.90;;;;;;5114340;28;20088;-75
2022/09/15 02:55:32;;;;;;;8.43;3.08;;;17.20;99.90;;;;;;5113818;28;20059;-73
2022/09/15 02:58:00;;;;;;;9.40;3.20;;;17.20;99.90;;;;;;5113865;28;20112;-74
2022/09/15 03:00:28;;;;;;;9.45;3.38;;;17.30;99.90;;;;;;5096211;28;20055;-75
2022/09/15 03:02:57;;;;;;;8.38;3.25;;;17.30;99.90;;;;;;5114249;28;20062;-75
2022/09/15 03:05:26;;;;;;;7.38;3.72;;;17.30;99.90;;;;;;5114072;28;20126;-75
2022/09/15 03:07:54;;;;;;;13.57;3.33;;;17.20;99.90;;;;;;5095412;28;20044;-75
2022/09/15 03:10:23;;;;;;;7.20;3.53;;;17.20;99.90;;;;;;5114146;28;20039;-74
2022/09/15 03:12:52;;;;;;;8.63;3.70;;;17.20;99.90;;;;;;5112619;28;20035;-74
2022/09/15 03:15:22;;;;;;;10.30;3.70;;;17.20;99.90;;;;;;5113641;28;20035;-73
2022/09/15 03:17:49;;;;;;;9.30;3.90;;;17.10;99.90;;;;;;5113478;28;20075;-73
2022/09/15 03:20:21;;;;;;;9.27;3.97;;;17.10;99.90;;;;;;5114159;28;20552;-73
2022/09/15 03:22:48;;;;;;;9.50;3.92;;;17.10;99.90;;;;;;5111639;28;20035;-73
2022/09/15 03:25:17;;;;;;;13.55;3.90;;;17.10;99.90;;;;;;5113724;28;20051;-73
2022/09/15 03:27:44;;;;;;;11.23;4.53;;;17.10;99.90;;;;;;5113176;28;20073;-73
2022/09/15 03:30:15;;;;;;;6.43;3.85;;;17.10;99.90;;;;;;5113214;28;20482;-73
2022/09/15 03:32:43;;;;;;;12.40;4.55;;;17.00;99.90;;;;;;5113433;28;20521;-73
2022/09/15 03:35:10;;;;;;;11.68;4.20;;;17.00;99.90;;;;;;5101791;28;20043;-73
2022/09/15 03:37:39;;;;;;;10.18;4.40;;;17.00;99.90;;;;;;5093347;28;20115;-74
2022/09/15 03:40:09;;;;;;;11.88;4.30;;;17.00;99.90;;;;;;5091936;28;20048;-74
2022/09/15 03:42:42;;;;;;;7.28;3.67;;;17.10;99.90;;;;;;5110518;28;20530;-75
2022/09/15 03:45:10;;;;;;;14.50;3.88;;;17.10;99.90;;;;;;5114770;27;20509;-75
2022/09/15 03:47:37;;;;;;;13.25;4.72;;;17.10;99.90;;;;;;5106017;28;20498;-75
2022/09/15 03:50:07;;;;;;;8.25;4.25;;;17.10;99.90;;;;;;5114001;28;20096;-75
2022/09/15 03:52:35;;;;;;;12.00;5.13;;;17.10;99.90;;;;;;5113744;28;20035;-75
2022/09/15 03:55:04;;;;;;;11.35;4.45;;;17.10;99.90;;;;;;5113385;28;20094;-75
2022/09/15 03:57:31;;;;;;;10.82;4.13;;;17.10;99.90;;;;;;5113815;28;20044;-75
2022/09/15 03:59:59;;;;;;;9.80;4.07;;;17.10;99.90;;;;;;5113567;28;20043;-75
2022/09/15 04:02:26;;;;;;;6.95;3.22;;;17.10;99.90;;;;;;5113668;28;20448;-74
2022/09/15 04:04:53;;;;;;;8.13;3.83;;;17.10;99.90;;;;;;5113613;28;20044;-74
2022/09/15 04:07:20;;;;;;;10.77;3.47;;;17.10;99.90;;;;;;5113467;28;20101;-73
2022/09/15 04:09:48;;;;;;;7.60;3.47;;;17.20;99.90;;;;;;5113819;28;20486;-73
2022/09/15 04:12:16;;;;;;;7.55;2.97;;;17.10;99.90;;;;;;5113141;28;20483;-73
2022/09/15 04:14:44;;;;;;;14.98;3.58;;;17.10;99.90;;;;;;5094702;28;20134;-73
2022/09/15 04:17:11;;;;;;;10.20;3.38;;;17.10;99.90;;;;;;5113227;28;20461;-73
2022/09/15 04:19:39;;;;;;;8.27;3.55;;;17.00;99.90;;;;;;5113385;28;20039;-73
2022/09/15 04:22:06;;;;;;;8.30;3.30;;;17.00;99.90;;;;;;5086828;28;20048;-73
2022/09/15 04:24:34;;;;;;;6.82;3.20;;;17.00;99.90;;;;;;5112759;28;20505;-74
2022/09/15 04:27:01;;;;;;;8.32;3.72;;;17.00;99.90;;;;;;5113192;28;20040;-75
2022/09/15 04:29:30;;;;;;;8.05;3.08;;;17.00;99.90;;;;;;5095126;28;20494;-74
2022/09/15 04:31:57;;;;;;;9.18;4.70;;;16.90;99.90;;;;;;5113182;28;20452;-74
2022/09/15 04:34:25;;;;;;;10.00;4.38;;;17.00;99.90;;;;;;5113193;28;20036;-75
2022/09/15 04:36:52;;;;;;;9.45;4.95;;;17.00;99.90;;;;;;5113146;28;20046;-75
2022/09/15 04:39:19;;;;;;;12.52;5.47;;;17.00;99.90;;;;;;5094857;28;20047;-73
2022/09/15 04:41:47;;;;;;;10.98;4.50;;;17.00;99.90;;;;;;5112731;28;20044;-73
2022/09/15 04:44:14;;;;;;;12.80;4.72;;;16.90;99.90;;;;;;5113059;28;20512;-73
2022/09/15 04:46:43;;;;;;;11.23;4.38;;;17.00;99.90;;;;;;5114717;28;20108;-73
2022/09/15 04:49:10;;;;;;;11.48;4.13;;;17.00;99.90;;;;;;5116760;28;20094;-74
2022/09/15 04:51:38;;;;;;;8.07;4.28;;;17.00;99.90;;;;;;5116953;28;20122;-73
2022/09/15 04:54:06;;;;;;;11.48;4.53;;;17.00;99.90;;;;;;5116328;28;20031;-74
2022/09/15 04:56:34;;;;;;;10.30;4.32;;;17.10;99.90;;;;;;5116640;28;20059;-73
2022/09/15 04:59:01;;;;;;;13.90;4.70;;;17.10;99.90;;;;;;5116558;28;20551;-73
2022/09/15 05:01:30;;;;;;;11.63;4.18;;;17.20;99.90;;;;;;5116600;28;20490;-73
2022/09/15 05:04:00;;;;;;;10.73;4.47;;;17.20;99.90;;;;;;5098648;28;20040;-73
2022/09/15 05:06:28;;;;;;;8.35;3.90;;;17.20;99.90;;;;;;5116341;28;20039;-74
2022/09/15 05:08:57;;;;;;;11.68;4.80;;;17.30;99.90;;;;;;5116575;28;20108;-75
2022/09/15 05:11:25;;;;;;;14.52;4.80;;;17.40;99.90;;;;;;5098084;28;20453;-75
2022/09/15 05:13:53;;;;;;;11.82;4.07;;;17.40;99.90;;;;;;5097697;28;20043;-75
2022/09/15 05:16:22;;;;;;;11.45;3.95;;;17.40;99.90;;;;;;5115823;28;20066;-75
2022/09/15 05:18:50;;;;;;;13.63;6.32;;;17.50;99.90;;;;;;5098558;28;20465;-75
2022/09/15 05:21:21;;;;;;;9.38;4.35;;;17.60;99.90;;;;;;5116253;28;20051;-75
2022/09/15 05:23:49;;;;;;;9.23;3.97;;;17.50;99.90;;;;;;5115805;28;20039;-74
2022/09/15 05:26:18;;;;;;;12.13;3.80;;;17.50;99.90;;;;;;5097870;28;20171;-75
2022/09/15 05:28:46;;;;;;;8.18;3.72;;;17.60;99.90;;;;;;5116121;28;20039;-75
2022/09/15 05:31:17;;;;;;;10.57;4.30;;;17.70;99.90;;;;;;5115968;28;20089;-74
2022/09/15 05:33:45;;;;;;;10.68;4.43;;;17.70;99.90;;;;;;5115166;28;20039;-75
2022/09/15 05:36:13;;;;;;;12.20;6.35;;;17.80;99.90;;;;;;5115738;28;20056;-73
2022/09/15 05:38:43;;;;;;;11.13;4.22;;;17.90;99.90;;;;;;5115568;28;20119;-74
2022/09/15 05:41:11;;;;;;;16.48;8.30;;;18.00;99.90;;;;;;5115653;28;20048;-73
2022/09/15 05:43:39;;;;;;;11.18;4.70;;;18.00;99.90;;;;;;5115274;28;20047;-73
2022/09/15 05:46:07;;;;;;;11.80;4.50;;;18.10;99.90;;;;;;5115771;28;20036;-73
2022/09/15 05:48:35;;;;;;;14.35;5.57;;;18.10;99.90;;;;;;5096884;28;20035;-74
2022/09/15 05:51:03;;;;;;;20.35;10.63;;;18.20;99.90;;;;;;5115551;28;20109;-72
2022/09/15 05:53:31;;;;;;;23.77;12.30;;;18.30;99.90;;;;;;5115433;28;20085;-74
2022/09/15 05:56:01;;;;;;;18.90;7.95;;;18.40;99.90;;;;;;5115286;28;20503;-72
2022/09/15 05:58:30;;;;;;;18.15;7.75;;;18.50;99.90;;;;;;5114536;28;20123;-72
2022/09/15 06:01:03;;;;;;;15.45;6.75;;;18.70;99.90;;;;;;5115553;28;20154;-73
2022/09/15 06:03:30;;;;;;;11.20;5.40;;;18.70;99.90;;;;;;5097231;28;20081;-72
2022/09/15 06:06:01;;;;;;;13.63;5.43;;;18.80;99.90;;;;;;5115304;28;20552;-73
2022/09/15 06:08:32;;;;;;;16.35;5.80;;;18.80;99.90;;;;;;5097242;28;20043;-73
2022/09/15 06:11:06;;;;;;;11.63;5.35;;;18.90;99.90;;;;;;5115141;28;20105;-73
2022/09/15 06:13:35;;;;;;;13.65;5.35;;;18.90;99.90;;;;;;5114492;28;20158;-73
2022/09/15 06:16:05;;;;;;;13.18;4.93;;;19.00;99.90;;;;;;5115280;28;20039;-75
2022/09/15 06:18:33;;;;;;;15.82;6.60;;;19.00;99.90;;;;;;5116478;28;20422;-79
2022/09/15 06:21:07;;;;;;;17.65;5.82;;;19.10;99.90;;;;;;5115728;28;20071;-74
2022/09/15 06:23:35;;;;;;;18.42;11.00;;;19.30;99.90;;;;;;5114643;28;20047;-74
2022/09/15 06:26:10;;;;;;;17.58;6.03;;;19.50;99.90;;;;;;5096561;28;20494;-74
2022/09/15 06:28:38;;;;;;;15.48;5.90;;;19.70;99.90;;;;;;5114960;28;20040;-74
2022/09/15 06:31:09;;;;;;;11.93;5.13;;;19.80;99.90;;;;;;5114827;28;20051;-74
2022/09/15 06:33:37;;;;;;;12.50;5.68;;;20.10;99.90;;;;;;5114222;28;20370;-74
2022/09/15 06:36:04;;;;;;;27.20;8.73;;;20.20;99.90;;;;;;5114448;28;20054;-74
2022/09/15 06:38:31;;;;;;;19.67;7.90;;;20.40;99.90;;;;;;5114384;28;20453;-74
2022/09/15 06:40:59;;;;;;;13.95;7.50;;;20.50;99.90;;;;;;5114386;28;20047;-74
2022/09/15 06:43:30;;;;;;;19.70;7.80;;;20.50;99.90;;;;;;5112963;28;20404;-74
2022/09/15 06:46:02;;;;;;;18.85;9.65;;;20.50;99.90;;;;;;5114516;28;20043;-74
2022/09/15 06:48:31;;;;;;;11.15;4.90;;;20.60;99.90;;;;;;5114343;28;20064;-74
2022/09/15 06:50:59;;;;;;;17.92;10.50;;;20.70;99.90;;;;;;5114163;28;20074;-74
2022/09/15 06:53:28;;;;;;;22.45;6.85;;;20.70;99.90;;;;;;5096461;28;20097;-74
2022/09/15 06:55:56;;;;;;;15.27;4.82;;;20.80;99.90;;;;;;5116661;28;20067;-74
2022/09/15 06:58:23;;;;;;;17.90;5.28;;;20.90;99.90;;;;;;5117820;28;20066;-74
2022/09/15 07:00:52;;;;;;;13.65;5.15;;;21.20;99.90;;;;;;5121586;28;20065;-74
2022/09/15 07:03:19;;;;;;;12.82;6.28;;;21.40;99.90;;;;;;5122033;28;20047;-74
2022/09/15 07:05:47;;;;;;;11.73;5.70;;;21.70;99.90;;;;;;5119128;28;20421;-74
2022/09/15 07:08:14;;;;;;;14.90;6.53;;;21.80;1.00;;;;;;5115165;28;20118;-74
2022/09/15 07:10:44;;;;;;;13.90;6.80;;;21.70;1.00;;;;;;5133781;27;20126;-81
2022/09/15 07:13:11;;;;;;;16.83;6.50;;;21.80;1.00;;;;;;5135570;27;20071;-75
2022/09/15 07:15:39;;;;;;;17.58;8.55;;;21.80;99.90;;;;;;5133793;27;20112;-75
2022/09/15 07:18:07;;;;;;;20.35;9.00;;;21.80;99.90;;;;;;5134065;27;20516;-75
2022/09/15 07:20:39;;;;;;;25.77;15.35;;;21.80;99.90;;;;;;5134448;27;20043;-75
2022/09/15 07:23:06;;;;;;;27.80;18.27;;;21.90;99.90;;;;;;5134278;27;20490;-75
2022/09/15 07:25:34;;;;;;;29.45;17.27;;;21.90;99.90;;;;;;5134205;27;20080;-75
2022/09/15 07:28:02;;;;;;;23.60;12.63;;;22.00;99.90;;;;;;5134592;27;20042;-75
2022/09/15 07:30:29;;;;;;;27.55;11.98;;;22.10;1.00;;;;;;5134351;27;20039;-75
2022/09/15 07:32:56;;;;;;;34.65;18.60;;;22.10;1.00;;;;;;5134171;27;20039;-75
2022/09/15 07:35:25;;;;;;;30.42;13.57;;;22.10;1.00;;;;;;5134141;27;20443;-75
2022/09/15 07:37:53;;;;;;;31.27;15.63;;;22.00;1.00;;;;;;5134136;27;20039;-75
2022/09/15 07:40:20;;;;;;;29.75;15.18;;;22.00;1.00;;;;;;5134077;27;20489;-75
2022/09/15 07:42:48;;;;;;;26.40;11.40;;;22.00;1.00;;;;;;5133876;27;20119;-75
2022/09/15 07:45:15;;;;;;;18.98;9.85;;;22.00;1.00;;;;;;5133971;27;20039;-75
2022/09/15 07:47:43;;;;;;;19.25;9.70;;;22.00;1.00;;;;;;5134011;27;20133;-75
2022/09/15 07:50:13;;;;;;;15.90;9.10;;;22.10;99.90;;;;;;5134389;28;20051;-75
2022/09/15 07:52:41;;;;;;;17.05;8.15;;;22.10;1.00;;;;;;5116409;28;20138;-75
2022/09/15 07:55:09;;;;;;;16.63;9.45;;;22.10;7.50;;;;;;5134117;28;20055;-75
2022/09/15 07:57:36;;;;;;;22.48;10.68;;;22.10;99.90;;;;;;5134119;27;20043;-75
2022/09/15 08:00:05;;;;;;;26.33;13.68;;;22.00;1.00;;;;;;5135140;27;20375;-75
2022/09/15 08:02:39;;;;;;;22.95;11.55;;;22.00;1.00;;;;;;5134223;27;20051;-75
2022/09/15 08:05:07;;;;;;;31.80;15.65;;;21.90;1.00;;;;;;5134197;27;20070;-76
2022/09/15 08:07:34;;;;;;;21.17;11.45;;;21.90;1.00;;;;;;5133806;27;20076;-75
2022/09/15 08:10:03;;;;;;;24.27;10.13;;;21.80;1.00;;;;;;5133597;28;20148;-75
2022/09/15 08:12:31;;;;;;;18.38;8.90;;;21.70;1.00;;;;;;5133569;28;20554;-75
2022/09/15 08:14:58;;;;;;;19.33;9.27;;;21.70;1.00;;;;;;5133887;28;20039;-75
2022/09/15 08:17:25;;;;;;;21.95;10.57;;;21.80;50.30;;;;;;5133577;28;20057;-75
2022/09/15 08:19:53;;;;;;;22.50;10.10;;;21.80;99.90;;;;;;5134065;27;20042;-75
2022/09/15 08:22:20;;;;;;;25.67;10.57;;;21.80;99.90;;;;;;5136560;27;20074;-75
2022/09/15 08:24:47;;;;;;;21.00;11.30;;;21.90;99.90;;;;;;5137611;27;20091;-75
2022/09/15 08:27:16;;;;;;;19.35;9.63;;;21.90;99.90;;;;;;5138363;27;20039;-75
2022/09/15 08:29:43;;;;;;;18.98;9.45;;;21.90;99.90;;;;;;5138326;27;20035;-75
2022/09/15 08:32:11;;;;;;;23.35;9.98;;;21.90;99.90;;;;;;5138156;27;20102;-75
2022/09/15 08:34:39;;;;;;;21.27;9.82;;;21.90;99.90;;;;;;5138467;27;20035;-75
2022/09/15 08:37:06;;;;;;;18.75;9.20;;;21.90;99.90;;;;;;5138076;27;20444;-75
2022/09/15 08:39:33;;;;;;;18.85;11.95;;;21.80;99.90;;;;;;5138270;27;20043;-75
2022/09/15 08:42:02;;;;;;;16.92;9.82;;;21.80;99.90;;;;;;5137908;27;20486;-75
2022/09/15 08:44:39;;;;;;;20.02;9.23;;;21.80;99.90;;;;;;5137339;27;20077;-75
2022/09/15 08:47:15;;;;;;;16.70;10.70;;;21.80;99.90;;;;;;5137922;27;20047;-75
2022/09/15 08:49:52;;;;;;;18.52;10.60;;;21.60;99.90;;;;;;5139085;27;20050;-75
2022/09/15 08:52:25;;;;;;;25.98;12.85;;;21.70;99.90;;;;;;5137301;27;20050;-75
2022/09/15 08:54:56;;;;;;;19.38;13.60;;;21.70;99.90;;;;;;5136583;27;20035;-75
2022/09/15 08:57:24;;;;;;;21.02;12.05;;;21.80;99.90;;;;;;5118723;27;20047;-75
2022/09/15 08:59:54;;;;;;;17.23;10.32;;;22.00;99.90;;;;;;5137123;27;20513;-75
2022/09/15 09:02:38;;;;;;;22.60;14.15;;;22.20;99.90;;;;;;5136991;27;20465;-75
2022/09/15 09:05:14;;;;;;;20.80;13.30;;;22.60;99.90;;;;;;5137140;27;20039;-75
2022/09/15 09:08:00;;;;;;;17.85;9.25;;;23.00;99.90;;;;;;5137088;27;20045;-75
2022/09/15 09:10:35;;;;;;;14.90;9.18;;;23.20;99.90;;;;;;5137244;27;20043;-75
2022/09/15 09:13:16;;;;;;;21.85;8.40;;;23.10;99.90;;;;;;5118135;27;20047;-75
2022/09/15 09:15:57;;;;;;;18.98;11.40;;;23.30;99.90;;;;;;5136884;27;20070;-75
2022/09/15 09:18:48;;;;;;;16.10;7.07;;;23.50;99.90;;;;;;5118360;27;20050;-75
2022/09/15 09:21:25;;;;;;;15.52;7.32;;;23.70;99.90;;;;;;5119869;27;20108;-75
2022/09/15 09:24:02;;;;;;;19.42;9.73;;;23.80;99.90;;;;;;5136753;27;20039;-75
2022/09/15 09:26:32;;;;;;;26.20;16.23;;;23.80;99.90;;;;;;5118543;27;20050;-76
2022/09/15 09:29:01;;;;;;;29.17;17.60;;;24.00;99.90;;;;;;5136559;27;20443;-76
2022/09/15 09:31:29;;;;;;;27.35;18.38;;;23.90;99.90;;;;;;5136362;27;20043;-76
2022/09/15 09:34:05;;;;;;;28.58;18.70;;;24.10;99.90;;;;;;5135822;27;20046;-76
2022/09/15 09:36:33;;;;;;;28.17;17.90;;;24.40;99.90;;;;;;5136292;27;20070;-77
2022/09/15 09:39:03;;;;;;;14.88;8.27;;;24.70;99.90;;;;;;5136576;27;20375;-76
2022/09/15 09:41:35;;;;;;;17.17;7.60;;;24.60;99.90;;;;;;5136160;27;20047;-76
2022/09/15 09:44:04;;;;;;;17.25;8.43;;;24.40;99.90;;;;;;5135643;27;20126;-76
2022/09/15 09:46:34;;;;;;;13.80;8.02;;;24.40;99.90;;;;;;5136300;27;20096;-76
2022/09/15 09:49:04;;;;;;;14.32;7.20;;;24.60;99.90;;;;;;5136890;27;20043;-76
2022/09/15 09:51:34;;;;;;;14.10;8.10;;;24.90;1.00;;;;;;5136201;27;20047;-76
2022/09/15 09:54:11;;;;;;;14.77;8.98;;;25.10;1.00;;;;;;5117625;27;20552;-76
2022/09/15 09:56:38;;;;;;;21.17;11.38;;;25.50;1.00;;;;;;5118152;27;20059;-75
2022/09/15 09:59:06;;;;;;;14.80;10.38;;;25.70;99.90;;;;;;5136500;27;20047;-75
2022/09/15 10:01:34;;;;;;;12.35;6.85;;;25.70;90.70;;;;;;5117712;27;20054;-75
2022/09/15 10:04:13;;;;;;;10.15;6.25;;;25.50;1.00;;;;;;5135707;27;20490;-75
2022/09/15 10:06:41;;;;;;;12.13;6.47;;;25.40;1.00;;;;;;5135856;27;20101;-75
2022/09/15 10:09:15;;;;;;;13.32;5.80;;;25.30;86.80;;;;;;5135809;27;20043;-75
2022/09/15 10:11:45;;;;;;;11.77;5.43;;;25.50;1.00;;;;;;5136109;27;20099;-75
2022/09/15 10:14:26;;;;;;;11.65;6.35;;;25.30;1.00;;;;;;5136531;27;20098;-74
2022/09/15 10:17:03;;;;;;;9.38;4.75;;;25.20;99.90;;;;;;5136960;27;20548;-76
2022/09/15 10:19:32;;;;;;;13.93;5.40;;;24.90;99.90;;;;;;5136212;27;20091;-75
2022/09/15 10:22:02;;;;;;;12.80;4.78;;;25.00;99.90;;;;;;5123487;27;20059;-74
2022/09/15 10:24:34;;;;;;;9.93;4.60;;;25.00;16.20;;;;;;5113861;28;20065;-76
2022/09/15 10:27:15;;;;;;;10.90;4.70;;;25.00;1.00;;;;;;5114524;28;20517;-76
2022/09/15 10:29:43;;;;;;;9.82;4.78;;;25.00;1.00;;;;;;5113962;28;20071;-75
2022/09/15 10:32:25;;;;;;;10.68;4.40;;;25.30;1.00;;;;;;5114622;28;20498;-74
2022/09/15 10:35:01;;;;;;;25.30;10.93;;;25.70;1.00;;;;;;5112605;28;20044;-75
2022/09/15 10:37:32;;;;;;;9.70;4.70;;;26.10;1.00;;;;;;5114458;28;20043;-74
2022/09/15 10:40:02;;;;;;;18.60;9.68;;;26.30;1.00;;;;;;5099643;28;20402;-74
2022/09/15 10:42:59;;;;;;;13.50;4.93;;;26.20;19.10;;;;;;5096050;28;20635;-76
2022/09/15 10:45:33;;;;;;;8.52;4.53;;;26.50;1.00;;;;;;5106743;28;20051;-75
2022/09/15 10:48:27;;;;;;;11.13;4.97;;;26.50;99.90;;;;;;5094356;28;20139;-74
2022/09/15 10:50:59;;;;;;;9.02;4.30;;;26.30;1.00;;;;;;5094531;28;20467;-75
2022/09/15 10:53:40;;;;;;;9.98;4.25;;;26.50;1.00;;;;;;5094348;28;20505;-75
2022/09/15 10:56:20;;;;;;;8.27;3.90;;;26.50;1.00;;;;;;5098272;28;20048;-75
2022/09/15 10:58:59;;;;;;;6.90;3.83;;;26.60;25.20;;;;;;5102011;28;20047;-75
2022/09/15 11:01:47;;;;;;;10.13;3.58;;;26.80;78.00;;;;;;5113862;28;20043;-75
2022/09/15 11:04:37;;;;;;;8.13;3.83;;;26.90;99.90;;;;;;5113494;28;20043;-74
2022/09/15 11:07:11;;;;;;;7.28;3.60;;;26.90;99.90;;;;;;5098064;28;20044;-74
2022/09/15 11:09:45;;;;;;;9.50;3.40;;;26.90;99.90;;;;;;5113955;28;20039;-74
2022/09/15 11:12:26;;;;;;;9.35;3.70;;;27.00;99.90;;;;;;5118468;28;20048;-74
2022/09/15 11:15:06;;;;;;;7.82;3.63;;;27.10;99.90;;;;;;5117058;28;20402;-76
2022/09/15 11:17:54;;;;;;;7.22;3.25;;;27.10;99.90;;;;;;5096625;28;20044;-75
2022/09/15 11:20:41;;;;;;;5.30;3.25;;;27.10;99.90;;;;;;5088195;28;20444;-75
2022/09/15 11:23:17;;;;;;;11.55;4.60;;;27.10;99.90;;;;;;5119750;28;20104;-75
2022/09/15 11:25:50;;;;;;;14.55;5.25;;;27.20;99.90;;;;;;5118684;28;20036;-75
2022/09/15 11:28:21;;;;;;;10.85;5.97;;;27.30;99.90;;;;;;5118950;28;20510;-75
2022/09/15 11:30:56;;;;;;;12.45;5.55;;;27.50;99.90;;;;;;5114138;28;20506;-76
2022/09/15 11:33:30;;;;;;;13.05;6.10;;;27.70;99.90;;;;;;5113691;28;20350;-76
2022/09/15 11:36:05;;;;;;;11.13;6.63;;;27.80;99.90;;;;;;5114212;28;20093;-75
2022/09/15 11:38:41;;;;;;;9.95;3.88;;;27.90;99.90;;;;;;5113740;28;20069;-75
2022/09/15 11:41:19;;;;;;;5.95;3.15;;;28.00;99.90;;;;;;5112386;28;20535;-74
2022/09/15 11:43:58;;;;;;;8.02;3.80;;;28.20;99.90;;;;;;5094590;28;20059;-76
2022/09/15 11:46:31;;;;;;;11.10;4.38;;;28.30;99.90;;;;;;5097273;28;20047;-75
2022/09/15 11:49:04;;;;;;;8.13;4.00;;;28.50;99.90;;;;;;5113476;28;20039;-75
2022/09/15 11:51:41;;;;;;;8.00;4.03;;;28.70;99.90;;;;;;5094545;28;20055;-75
2022/09/15 11:54:15;;;;;;;10.02;3.58;;;28.70;99.90;;;;;;5112922;28;20039;-76
2022/09/15 11:56:46;;;;;;;9.07;4.47;;;28.70;99.90;;;;;;5117178;28;20040;-76
2022/09/15 11:59:24;;;;;;;16.73;5.20;;;28.70;99.90;;;;;;5114479;28;20516;-76
2022/09/15 12:01:59;;;;;;;11.07;5.85;;;28.70;99.90;;;;;;5117731;28;20072;-75
2022/09/15 12:04:31;;;;;;;10.88;5.40;;;29.00;99.90;;;;;;5117513;28;20040;-76
2022/09/15 12:07:06;;;;;;;16.33;6.97;;;28.90;99.90;;;;;;5116972;28;20035;-76
2022/09/15 12:09:33;;;;;;;19.17;9.93;;;28.50;99.90;;;;;;5117355;28;20141;-76
2022/09/15 12:12:05;;;;;;;17.88;8.43;;;28.60;99.90;;;;;;5117704;28;20413;-76
2022/09/15 12:14:36;;;;;;;16.77;9.50;;;28.70;99.90;;;;;;5102390;28;20051;-76
2022/09/15 12:17:08;;;;;;;18.35;9.68;;;28.70;99.90;;;;;;5097050;28;20090;-76
2022/09/15 12:19:48;;;;;;;11.95;8.85;;;28.90;99.90;;;;;;5097207;28;20051;-76
2022/09/15 12:22:23;;;;;;;10.63;6.28;;;29.10;99.90;;;;;;5096655;28;20044;-76
2022/09/15 12:24:58;;;;;;;21.53;16.50;;;29.20;99.90;;;;;;5078626;28;20086;-76
2022/09/15 12:27:26;;;;;;;14.40;8.13;;;29.10;99.90;;;;;;5078793;28;20664;-77
2022/09/15 12:29:55;;;;;;;12.38;9.90;;;29.10;99.90;;;;;;5090105;28;20062;-75
2022/09/15 12:32:25;;;;;;;9.93;6.78;;;29.10;99.90;;;;;;5116402;28;20043;-77
2022/09/15 12:35:00;;;;;;;12.82;6.05;;;29.10;99.90;;;;;;5117226;28;20046;-76
2022/09/15 12:37:38;;;;;;;12.52;6.75;;;29.00;99.90;;;;;;5099447;28;20120;-75
2022/09/15 12:40:23;;;;;;;27.27;19.23;;;29.20;99.90;;;;;;5116449;28;20532;-75
2022/09/15 12:42:51;;;;;;;11.57;5.65;;;29.20;99.90;;;;;;5105576;28;20040;-75
2022/09/15 12:45:24;;;;;;;14.65;5.65;;;29.10;99.90;;;;;;5116749;28;20130;-75
2022/09/15 12:47:54;;;;;;;9.95;5.60;;;29.10;99.90;;;;;;5117188;28;20102;-76
2022/09/15 12:50:25;;;;;;;11.00;5.10;;;28.90;99.90;;;;;;5116803;28;20067;-76
2022/09/15 12:52:58;;;;;;;15.82;6.03;;;28.70;99.90;;;;;;5116646;28;20400;-76
2022/09/15 12:55:28;;;;;;;10.55;5.47;;;28.60;99.90;;;;;;5116401;28;20055;-76
2022/09/15 12:57:58;;;;;;;13.93;6.57;;;28.50;99.90;;;;;;5098177;28;20047;-75
2022/09/15 13:00:35;;;;;;;11.20;6.00;;;28.70;99.90;;;;;;5116551;28;20486;-75
2022/09/15 13:03:04;;;;;;;15.45;6.55;;;28.80;99.90;;;;;;5116313;28;20047;-75
2022/09/15 13:05:51;;;;;;;13.93;6.30;;;28.90;99.90;;;;;;5115970;28;20426;-75